Aérodrome :
LOGIN :

S'inscrire | Disclaimer

   EN    FR    IT 

 










Légende :    VFR   VFR Marginal   IFR   IFR Intensif   IFR Très Intensif
Visi : 
Plafond : 
>= 8 km
>= 3000ft
5 à 8 km
1000 à 3000 ft
1500m à 5 km
500 à 1000 ft
800 à 1500m
200 à 500 ft
< 800m
< 200 ft
Symboles :   Orages  Brouillard  Fortes neiges  Fortes précipitations  Vent > 20 kt
SIGMETs :   Divers  Orages  Givrage  Turbulence  Onde Orograph.  Cendres Volcan.






- Altitude de l'aérodrome : 1363 ft


ETIC - Grafenwohr Army Air Field

DERNIER METAR :
  • 221056Z AUTO 00000KT 6000 BR CLR 15/15 A3023 RMK AO2 SLP242 T01460146 $

METARs EXPIRÉS :
  • 221041Z AUTO M 3600 BR CLR 14/14 A3023 RMK AO2 SLP242 $
  • 221026Z AUTO 00000KT 2800 BR CLR 14/14 A3023 RMK AO2 VIS 2800V9999 SLP242 $
  • 220956Z AUTO 00000KT 8000 BR CLR 13/13 A3023 RMK AO2 SLP242 T01280128 $
  • 220856Z AUTO 00000KT 9999 FEW003 11/11 A3023 RMK AO2 SLP243 T01080108 52014 $

TAF TAF ETIC
Valide du 22 à 06h jusqu'au 23 à 12h UTC


220608Z 2206/2312 VRB06KT 0800 FG BKN001 QNH3015INS
BECMG 2207/2208 VRB06KT 9999 NSW SCT020 QNH3020INS
BECMG 2301/2302 09009KT 9999 BKN015 QNH3015INS TX17/2212Z TN06/2206Z



MET'MAP, la Météo Aéronautique d'un coup d'oeil ! - Copyright ORBIFLY Décembre 2007 - Disclaimer

ORBIFLY MET'MAP TEAM :

Programmation & Développement : Alexandra Zaïnal
Conception & Développement : Baudouin d'Aumeries
Co-Programmation & Développement : Marc-Olivier Méhu
Soutien technique & logistique : Manuel Goepfert

Contact : metmap@orbifly.com




SOURCES & CREDITS :

   NOAA